Jinan, China
Current Conditions -  °F | °C
As of 7:00 PM on Tuesday 21 Oct 2014 (Local Time) from ZSJN Reporting Station
Clear Clear  
Wind Chill: 52°   Ceiling: Unl
Heat Index: 52°   Visibility: 6mi
Dew Point: 43°   Wind: 4mph
Humidity: 71%   Direction: 20°NNE
Pressure: 30.21"   Gusts: NA
Location:  36.67°N, 117°E
Report Text: ZSJN 211100Z 02002MPS CAVOK 11/06 Q1023 NOSIG
Loading
Personal Weather Stations






























Interactive Weather Map
Tropical Storm Tracking
New forecast layout! Learn more

10-Day Weather Forecast

Advertisements
Track Severe Weather on mobile